PWSweather.com
Personal Weather Stations
Station Observations
UXOLA
Alcoy, AlcoyES

AlcoyAlcoyES

Lat: 38.70299, Lon: -0.48184

Elevation: 1935

Station Type: PCE FWS-20,

http://www.fiestasalcoy.xyz

High Low Average
Temperature 55.4°F13.0°C 41.0°F5.0°C 50.2°F10.1°C
Dew Point 38.4°F3.6°C 30.4°F-0.9°C 35.7°F2.1°C
Winds 14.5 mph 23.3 kmh Calm Calm 5.0 mph WSW8.0 kmh WSW
Wind Gusts 19.7 mph31.7 kmh 1.6 mph2.6 kmh 10.0 mph16.1 kmh
Humidity 84% 42% 58%
Pressure 29.50 in999.0 mb 29.17 in987.8 mb -
Precipitation 0.22 in5.6 mm - -
Hour Temp Dew Point Humidity Winds Wind Gusts Pressure Precip Precip Rate Daily Precip Total
12:00 AM 45.3°F7.4°C 36.8°F2.7°C 72% 2.2 mph SW3.5 kmh SW 3.1 mph5.0 kmh 29.53 in1000.0 mb 0.00 in0.0 mm 0.00 in0.0 mm 0.00 in0.0 mm
12:15 AM 44.8°F7.1°C 36.3°F2.4°C 72% 0.7 mph SSW1.1 kmh SSW 2.2 mph3.5 kmh 29.53 in1000.0 mb 0.00 in0.0 mm 0.00 in0.0 mm 0.00 in0.0 mm
12:30 AM 44.4°F6.9°C 36.0°F2.2°C 72% Calm Calm 1.6 mph2.6 kmh 29.52 in999.7 mb 0.00 in0.0 mm 0.00 in0.0 mm 0.00 in0.0 mm
12:45 AM 44.2°F6.8°C 35.8°F2.1°C 72% 0.7 mph SW1.1 kmh SW 3.1 mph5.0 kmh 29.51 in999.3 mb 0.00 in0.0 mm 0.00 in0.0 mm 0.00 in0.0 mm
01:00 AM 44.2°F6.8°C 35.8°F2.1°C 72% Calm Calm 2.2 mph3.5 kmh 29.50 in999.0 mb 0.00 in0.0 mm 0.00 in0.0 mm 0.00 in0.0 mm
01:15 AM 44.2°F6.8°C 35.4°F1.9°C 71% 0.7 mph SW1.1 kmh SW 1.6 mph2.6 kmh 29.50 in999.0 mb 0.00 in0.0 mm 0.00 in0.0 mm 0.00 in0.0 mm
01:30 AM 44.1°F6.7°C 35.6°F2.0°C 72% 2.2 mph SW3.5 kmh SW 3.1 mph5.0 kmh 29.49 in998.6 mb 0.00 in0.0 mm 0.00 in0.0 mm 0.00 in0.0 mm
01:45 AM 43.7°F6.5°C 37.3°F2.9°C 78% 0.7 mph ENE1.1 kmh ENE 1.6 mph2.6 kmh 29.49 in998.6 mb 0.00 in0.0 mm 0.00 in0.0 mm 0.00 in0.0 mm
02:00 AM 43.7°F6.5°C 37.3°F2.9°C 78% 0.7 mph SW1.1 kmh SW 3.1 mph5.0 kmh 29.48 in998.3 mb 0.00 in0.0 mm 0.00 in0.0 mm 0.00 in0.0 mm
02:15 AM 43.7°F6.5°C 36.6°F2.6°C 76% 1.6 mph SW2.6 kmh SW 3.8 mph6.1 kmh 29.48 in998.3 mb 0.00 in0.0 mm 0.00 in0.0 mm 0.00 in0.0 mm
02:30 AM 43.5°F6.4°C 36.1°F2.3°C 75% 0.7 mph WNW1.1 kmh WNW 1.6 mph2.6 kmh 29.48 in998.3 mb 0.00 in0.0 mm 0.00 in0.0 mm 0.00 in0.0 mm
02:45 AM 44.1°F6.7°C 34.6°F1.4°C 69% 3.1 mph SSW5.0 kmh SSW 4.5 mph7.2 kmh 29.48 in998.3 mb 0.00 in0.0 mm 0.00 in0.0 mm 0.00 in0.0 mm
03:00 AM 49.3°F9.6°C 30.4°F-0.9°C 48% 3.8 mph W6.1 kmh W 11.4 mph18.3 kmh 29.46 in997.6 mb 0.00 in0.0 mm 0.00 in0.0 mm 0.00 in0.0 mm
03:15 AM 49.5°F9.7°C 31.6°F-0.2°C 50% 1.6 mph SW2.6 kmh SW 9.8 mph15.8 kmh 29.46 in997.6 mb 0.00 in0.0 mm 0.00 in0.0 mm 0.00 in0.0 mm
03:30 AM 49.8°F9.9°C 32.4°F0.2°C 51% 6.0 mph WSW9.7 kmh WSW 9.2 mph14.8 kmh 29.45 in997.3 mb 0.00 in0.0 mm 0.00 in0.0 mm 0.00 in0.0 mm
03:45 AM 51.3°F10.7°C 34.7°F1.5°C 53% 5.4 mph WSW8.7 kmh WSW 13.6 mph21.9 kmh 29.44 in997.0 mb 0.00 in0.0 mm 0.00 in0.0 mm 0.00 in0.0 mm
04:00 AM 51.8°F11.0°C 35.7°F2.1°C 54% 7.6 mph WSW12.2 kmh WSW 12.1 mph19.5 kmh 29.44 in997.0 mb 0.00 in0.0 mm 0.00 in0.0 mm 0.00 in0.0 mm
04:15 AM 51.6°F10.9°C 35.1°F1.7°C 53% 2.2 mph WSW3.5 kmh WSW 15.2 mph24.5 kmh 29.42 in996.3 mb 0.00 in0.0 mm 0.00 in0.0 mm 0.00 in0.0 mm
04:30 AM 50.2°F10.1°C 34.2°F1.2°C 54% 6.9 mph SE11.1 kmh SE 9.2 mph14.8 kmh 29.41 in995.9 mb 0.00 in0.0 mm 0.00 in0.0 mm 0.00 in0.0 mm
04:45 AM 49.5°F9.7°C 34.4°F1.3°C 56% 3.1 mph SW5.0 kmh SW 7.6 mph12.2 kmh 29.40 in995.6 mb 0.00 in0.0 mm 0.00 in0.0 mm 0.00 in0.0 mm
05:00 AM 49.1°F9.5°C 35.0°F1.7°C 58% Calm Calm 2.2 mph3.5 kmh 29.39 in995.3 mb 0.00 in0.0 mm 0.00 in0.0 mm 0.00 in0.0 mm
05:15 AM 48.7°F9.3°C 35.5°F1.9°C 60% 1.6 mph W2.6 kmh W 3.1 mph5.0 kmh 29.38 in994.9 mb 0.00 in0.0 mm 0.00 in0.0 mm 0.00 in0.0 mm
05:30 AM 48.4°F9.1°C 35.1°F1.7°C 60% 0.7 mph W1.1 kmh W 2.2 mph3.5 kmh 29.39 in995.3 mb 0.00 in0.0 mm 0.00 in0.0 mm 0.00 in0.0 mm
05:45 AM 49.5°F9.7°C 37.0°F2.8°C 62% 9.2 mph WSW14.8 kmh WSW 10.7 mph17.2 kmh 29.37 in994.6 mb 0.00 in0.0 mm 0.00 in0.0 mm 0.00 in0.0 mm
06:00 AM 51.8°F11.0°C 38.4°F3.6°C 60% 9.2 mph WSW14.8 kmh WSW 12.1 mph19.5 kmh 29.37 in994.6 mb 0.00 in0.0 mm 0.00 in0.0 mm 0.00 in0.0 mm
06:15 AM 52.2°F11.2°C 37.8°F3.2°C 58% 10.7 mph W17.2 kmh W 13.6 mph21.9 kmh 29.37 in994.6 mb 0.00 in0.0 mm 0.00 in0.0 mm 0.00 in0.0 mm
06:30 AM 51.8°F11.0°C 37.5°F3.1°C 58% 8.3 mph W13.4 kmh W 14.5 mph23.3 kmh 29.38 in994.9 mb 0.00 in0.0 mm 0.00 in0.0 mm 0.00 in0.0 mm
06:45 AM 51.8°F11.0°C 37.5°F3.1°C 58% 6.9 mph WSW11.1 kmh WSW 11.4 mph18.3 kmh 29.37 in994.6 mb 0.00 in0.0 mm 0.00 in0.0 mm 0.00 in0.0 mm
07:00 AM 51.6°F10.9°C 37.8°F3.2°C 59% 8.3 mph W13.4 kmh W 12.1 mph19.5 kmh 29.36 in994.2 mb 0.00 in0.0 mm 0.00 in0.0 mm 0.00 in0.0 mm
07:15 AM 51.6°F10.9°C 37.8°F3.2°C 59% 6.0 mph WSW9.7 kmh WSW 12.1 mph19.5 kmh 29.36 in994.2 mb 0.00 in0.0 mm 0.00 in0.0 mm 0.00 in0.0 mm
07:30 AM 51.3°F10.7°C 37.9°F3.3°C 60% 7.6 mph WSW12.2 kmh WSW 13.6 mph21.9 kmh 29.36 in994.2 mb 0.00 in0.0 mm 0.00 in0.0 mm 0.00 in0.0 mm
07:45 AM 50.9°F10.5°C 37.5°F3.1°C 60% 6.9 mph W11.1 kmh W 10.7 mph17.2 kmh 29.35 in993.9 mb 0.00 in0.0 mm 0.00 in0.0 mm 0.00 in0.0 mm
08:00 AM 50.9°F10.5°C 37.5°F3.1°C 60% 7.6 mph WSW12.2 kmh WSW 11.4 mph18.3 kmh 29.35 in993.9 mb 0.00 in0.0 mm 0.00 in0.0 mm 0.00 in0.0 mm
08:15 AM 50.7°F10.4°C 37.4°F3.0°C 60% 7.6 mph WSW12.2 kmh WSW 17.4 mph28.0 kmh 29.35 in993.9 mb 0.00 in0.0 mm 0.00 in0.0 mm 0.00 in0.0 mm
08:30 AM 50.5°F10.3°C 37.6°F3.1°C 61% 6.9 mph W11.1 kmh W 18.3 mph29.5 kmh 29.35 in993.9 mb 0.00 in0.0 mm 0.00 in0.0 mm 0.00 in0.0 mm
08:45 AM 50.2°F10.1°C 37.3°F2.9°C 61% 9.8 mph WSW15.8 kmh WSW 17.4 mph28.0 kmh 29.35 in993.9 mb 0.00 in0.0 mm 0.00 in0.0 mm 0.00 in0.0 mm
09:00 AM 50.0°F10.0°C 37.5°F3.1°C 62% 8.3 mph WSW13.4 kmh WSW 14.5 mph23.3 kmh 29.36 in994.2 mb 0.00 in0.0 mm 0.00 in0.0 mm 0.00 in0.0 mm
09:15 AM 50.0°F10.0°C 37.5°F3.1°C 62% 9.2 mph WSW14.8 kmh WSW 12.1 mph19.5 kmh 29.35 in993.9 mb 0.00 in0.0 mm 0.00 in0.0 mm 0.00 in0.0 mm
09:30 AM 50.2°F10.1°C 37.3°F2.9°C 61% 8.3 mph SW13.4 kmh SW 19.7 mph31.7 kmh 29.35 in993.9 mb 0.00 in0.0 mm 0.00 in0.0 mm 0.00 in0.0 mm
09:45 AM 50.0°F10.0°C 37.5°F3.1°C 62% 3.1 mph WSW5.0 kmh WSW 16.8 mph27.0 kmh 29.35 in993.9 mb 0.00 in0.0 mm 0.00 in0.0 mm 0.00 in0.0 mm
10:00 AM 50.2°F10.1°C 37.3°F2.9°C 61% 2.2 mph WSW3.5 kmh WSW 9.8 mph15.8 kmh 29.35 in993.9 mb 0.00 in0.0 mm 0.00 in0.0 mm 0.00 in0.0 mm
10:15 AM 50.7°F10.4°C 37.4°F3.0°C 60% 3.8 mph WSW6.1 kmh WSW 9.8 mph15.8 kmh 29.35 in993.9 mb 0.00 in0.0 mm 0.00 in0.0 mm 0.00 in0.0 mm
10:30 AM 51.4°F10.8°C 36.7°F2.6°C 57% 3.8 mph WSW6.1 kmh WSW 11.4 mph18.3 kmh 29.35 in993.9 mb 0.00 in0.0 mm 0.00 in0.0 mm 0.00 in0.0 mm
10:45 AM 52.2°F11.2°C 36.5°F2.5°C 55% 3.8 mph WSW6.1 kmh WSW 11.4 mph18.3 kmh 29.33 in993.2 mb 0.00 in0.0 mm 0.00 in0.0 mm 0.00 in0.0 mm
11:00 AM 52.5°F11.4°C 36.4°F2.4°C 54% 6.9 mph WSW11.1 kmh WSW 10.7 mph17.2 kmh 29.33 in993.2 mb 0.00 in0.0 mm 0.00 in0.0 mm 0.00 in0.0 mm
11:15 AM 53.1°F11.7°C 34.9°F1.6°C 50% 6.0 mph WSW9.7 kmh WSW 16.8 mph27.0 kmh 29.34 in993.6 mb 0.00 in0.0 mm 0.00 in0.0 mm 0.00 in0.0 mm
11:30 AM 53.1°F11.7°C 33.9°F1.1°C 48% 7.6 mph WSW12.2 kmh WSW 17.4 mph28.0 kmh 29.32 in992.9 mb 0.00 in0.0 mm 0.00 in0.0 mm 0.00 in0.0 mm
11:45 AM 53.2°F11.8°C 34.1°F1.2°C 48% 7.6 mph SW12.2 kmh SW 13.6 mph21.9 kmh 29.32 in992.9 mb 0.00 in0.0 mm 0.00 in0.0 mm 0.00 in0.0 mm
12:00 PM 54.0°F12.2°C 34.2°F1.2°C 47% 13.6 mph SW21.9 kmh SW 16.8 mph27.0 kmh 29.32 in992.9 mb 0.00 in0.0 mm 0.00 in0.0 mm 0.00 in0.0 mm
12:15 PM 54.1°F12.3°C 33.8°F1.0°C 46% 6.9 mph W11.1 kmh W 14.5 mph23.3 kmh 29.31 in992.6 mb 0.00 in0.0 mm 0.00 in0.0 mm 0.00 in0.0 mm
12:30 PM 53.4°F11.9°C 33.7°F0.9°C 47% 8.3 mph W13.4 kmh W 17.4 mph28.0 kmh 29.30 in992.2 mb 0.00 in0.0 mm 0.00 in0.0 mm 0.00 in0.0 mm
12:45 PM 54.5°F12.5°C 34.7°F1.5°C 47% 6.9 mph WSW11.1 kmh WSW 17.4 mph28.0 kmh 29.29 in991.9 mb 0.00 in0.0 mm 0.00 in0.0 mm 0.00 in0.0 mm
01:00 PM 55.4°F13.0°C 34.4°F1.3°C 45% 13.0 mph NW20.9 kmh NW 14.5 mph23.3 kmh 29.28 in991.5 mb 0.00 in0.0 mm 0.00 in0.0 mm 0.00 in0.0 mm
01:15 PM 55.4°F13.0°C 35.0°F1.7°C 46% 3.8 mph WSW6.1 kmh WSW 16.8 mph27.0 kmh 29.27 in991.2 mb 0.00 in0.0 mm 0.00 in0.0 mm 0.00 in0.0 mm
01:30 PM 55.2°F12.9°C 35.9°F2.2°C 48% 6.0 mph WSW9.7 kmh WSW 16.8 mph27.0 kmh 29.27 in991.2 mb 0.00 in0.0 mm 0.00 in0.0 mm 0.00 in0.0 mm
01:45 PM 55.2°F12.9°C 36.9°F2.7°C 50% 6.9 mph WSW11.1 kmh WSW 13.6 mph21.9 kmh 29.26 in990.9 mb 0.00 in0.0 mm 0.00 in0.0 mm 0.00 in0.0 mm
02:00 PM 55.2°F12.9°C 34.8°F1.6°C 46% 4.5 mph WSW7.2 kmh WSW 18.3 mph29.5 kmh 29.25 in990.5 mb 0.00 in0.0 mm 0.00 in0.0 mm 0.00 in0.0 mm
02:15 PM 55.0°F12.8°C 34.6°F1.4°C 46% 14.5 mph WSW23.3 kmh WSW 19.7 mph31.7 kmh 29.24 in990.2 mb 0.00 in0.0 mm 0.00 in0.0 mm 0.00 in0.0 mm
02:30 PM 54.9°F12.7°C 34.5°F1.4°C 46% 4.5 mph SW7.2 kmh SW 10.7 mph17.2 kmh 29.23 in989.8 mb 0.00 in0.0 mm 0.00 in0.0 mm 0.00 in0.0 mm
02:45 PM 55.0°F12.8°C 35.7°F2.1°C 48% 4.5 mph W7.2 kmh W 7.6 mph12.2 kmh 29.22 in989.5 mb 0.00 in0.0 mm 0.00 in0.0 mm 0.00 in0.0 mm
03:00 PM 55.0°F12.8°C 34.1°F1.2°C 45% 7.6 mph SW12.2 kmh SW 9.8 mph15.8 kmh 29.22 in989.5 mb 0.00 in0.0 mm 0.00 in0.0 mm 0.00 in0.0 mm
03:15 PM 55.2°F12.9°C 32.5°F0.3°C 42% 6.9 mph SSW11.1 kmh SSW 15.9 mph25.6 kmh 29.21 in989.2 mb 0.00 in0.0 mm 0.00 in0.0 mm 0.00 in0.0 mm
03:30 PM 55.2°F12.9°C 33.1°F0.6°C 43% 9.2 mph WSW14.8 kmh WSW 11.4 mph18.3 kmh 29.22 in989.5 mb 0.00 in0.0 mm 0.00 in0.0 mm 0.00 in0.0 mm
03:45 PM 55.0°F12.8°C 34.1°F1.2°C 45% 13.0 mph WSW20.9 kmh WSW 15.9 mph25.6 kmh 29.21 in989.2 mb 0.00 in0.0 mm 0.00 in0.0 mm 0.00 in0.0 mm
04:00 PM 54.9°F12.7°C 33.4°F0.8°C 44% 3.1 mph SW5.0 kmh SW 13.6 mph21.9 kmh 29.21 in989.2 mb 0.00 in0.0 mm 0.00 in0.0 mm 0.00 in0.0 mm
04:15 PM 54.7°F12.6°C 33.8°F1.0°C 45% 3.8 mph NW6.1 kmh NW 6.9 mph11.1 kmh 29.20 in988.8 mb 0.00 in0.0 mm 0.00 in0.0 mm 0.00 in0.0 mm
04:30 PM 54.3°F12.4°C 34.0°F1.1°C 46% 0.7 mph N1.1 kmh N 3.8 mph6.1 kmh 29.21 in989.2 mb 0.00 in0.0 mm 0.00 in0.0 mm 0.00 in0.0 mm
04:45 PM 53.6°F12.0°C 35.4°F1.9°C 50% 1.6 mph NW2.6 kmh NW 5.4 mph8.7 kmh 29.21 in989.2 mb 0.00 in0.0 mm 0.00 in0.0 mm 0.00 in0.0 mm
05:30 PM 51.6°F10.9°C 37.3°F2.9°C 58% 3.1 mph WSW5.0 kmh WSW 5.4 mph8.7 kmh 29.20 in988.8 mb 0.00 in0.0 mm 0.00 in0.0 mm 0.00 in0.0 mm
05:45 PM 51.4°F10.8°C 36.7°F2.6°C 57% 5.4 mph WSW8.7 kmh WSW 6.9 mph11.1 kmh 29.20 in988.8 mb 0.00 in0.0 mm 0.00 in0.0 mm 0.00 in0.0 mm
06:00 PM 51.1°F10.6°C 36.4°F2.4°C 57% 3.1 mph W5.0 kmh W 9.8 mph15.8 kmh 29.20 in988.8 mb 0.00 in0.0 mm 0.00 in0.0 mm 0.00 in0.0 mm
06:15 PM 50.7°F10.4°C 36.1°F2.3°C 57% 0.7 mph SSW1.1 kmh SSW 6.9 mph11.1 kmh 29.20 in988.8 mb 0.00 in0.0 mm 0.00 in0.0 mm 0.00 in0.0 mm
06:30 PM 50.5°F10.3°C 36.3°F2.4°C 58% 1.6 mph SW2.6 kmh SW 9.8 mph15.8 kmh 29.20 in988.8 mb 0.00 in0.0 mm 0.00 in0.0 mm 0.00 in0.0 mm
06:45 PM 50.5°F10.3°C 36.3°F2.4°C 58% 1.6 mph SW2.6 kmh SW 5.4 mph8.7 kmh 29.19 in988.5 mb 0.00 in0.0 mm 0.00 in0.0 mm 0.00 in0.0 mm
07:00 PM 50.4°F10.2°C 35.7°F2.1°C 57% 1.6 mph SW2.6 kmh SW 4.5 mph7.2 kmh 29.20 in988.8 mb 0.00 in0.0 mm 0.00 in0.0 mm 0.00 in0.0 mm
07:15 PM 50.4°F10.2°C 35.3°F1.8°C 56% 1.6 mph WSW2.6 kmh WSW 4.5 mph7.2 kmh 29.19 in988.5 mb 0.00 in0.0 mm 0.00 in0.0 mm 0.00 in0.0 mm
07:30 PM 50.2°F10.1°C 35.1°F1.7°C 56% 1.6 mph WSW2.6 kmh WSW 5.4 mph8.7 kmh 29.19 in988.5 mb 0.00 in0.0 mm 0.00 in0.0 mm 0.00 in0.0 mm
07:45 PM 50.0°F10.0°C 35.4°F1.9°C 57% 0.7 mph WSW1.1 kmh WSW 3.1 mph5.0 kmh 29.20 in988.8 mb 0.00 in0.0 mm 0.00 in0.0 mm 0.00 in0.0 mm
08:00 PM 49.8°F9.9°C 35.2°F1.8°C 57% 2.2 mph WSW3.5 kmh WSW 3.1 mph5.0 kmh 29.20 in988.8 mb 0.00 in0.0 mm 0.00 in0.0 mm 0.00 in0.0 mm
08:15 PM 49.6°F9.8°C 35.0°F1.7°C 57% 0.7 mph W1.1 kmh W 3.1 mph5.0 kmh 29.19 in988.5 mb 0.00 in0.0 mm 0.00 in0.0 mm 0.00 in0.0 mm
08:30 PM 49.5°F9.7°C 34.9°F1.6°C 57% 1.6 mph WSW2.6 kmh WSW 6.9 mph11.1 kmh 29.20 in988.8 mb 0.00 in0.0 mm 0.00 in0.0 mm 0.00 in0.0 mm
08:45 PM 48.7°F9.3°C 35.1°F1.7°C 59% 5.4 mph W8.7 kmh W 8.3 mph13.4 kmh 29.20 in988.8 mb 0.00 in0.0 mm 0.00 in0.0 mm 0.00 in0.0 mm
09:00 PM 47.1°F8.4°C 34.8°F1.6°C 62% 1.6 mph SW2.6 kmh SW 9.2 mph14.8 kmh 29.20 in988.8 mb 0.00 in0.0 mm 0.00 in0.0 mm 0.00 in0.0 mm
09:15 PM 45.1°F7.3°C 34.8°F1.6°C 67% 2.2 mph WSW3.5 kmh WSW 6.9 mph11.1 kmh 29.21 in989.2 mb 0.02 in0.5 mm 0.08 in2.0 mm 0.02 in0.5 mm
09:30 PM 44.1°F6.7°C 34.9°F1.6°C 70% 0.7 mph WSW1.1 kmh WSW 7.6 mph12.2 kmh 29.21 in989.2 mb 0.07 in1.8 mm 0.20 in5.1 mm 0.07 in1.8 mm
10:30 PM 42.6°F5.9°C 37.2°F2.9°C 81% Calm Calm 1.6 mph2.6 kmh 29.18 in988.1 mb 0.06 in1.5 mm 0.00 in0.0 mm 0.13 in3.3 mm
10:45 PM 42.1°F5.6°C 37.0°F2.8°C 82% Calm Calm 1.6 mph2.6 kmh 29.18 in988.1 mb 0.06 in1.5 mm 0.00 in0.0 mm 0.14 in3.6 mm
11:00 PM 41.9°F5.5°C 36.8°F2.7°C 82% Calm Calm 1.6 mph2.6 kmh 29.18 in988.1 mb 0.07 in1.8 mm 0.01 in0.3 mm 0.17 in4.3 mm
11:15 PM 41.4°F5.2°C 36.3°F2.4°C 82% 2.2 mph WNW3.5 kmh WNW 3.8 mph6.1 kmh 29.17 in987.8 mb 0.07 in1.8 mm 0.00 in0.0 mm 0.19 in4.8 mm
11:30 PM 41.0°F5.0°C 36.2°F2.3°C 83% 0.7 mph WSW1.1 kmh WSW 3.8 mph6.1 kmh 29.17 in987.8 mb 0.08 in2.0 mm 0.04 in1.0 mm 0.21 in5.3 mm
11:45 PM 41.2°F5.1°C 36.7°F2.6°C 84% 4.5 mph NE7.2 kmh NE 6.0 mph9.7 kmh 29.18 in988.1 mb 0.08 in2.0 mm 0.00 in0.0 mm 0.22 in5.6 mm